sensor_id;sensor_type;location;lat;lon;timestamp;temperature;humidity
23685;DHT22;12020;51.384;6.908;2022-09-03T00:00:14;17.80;91.20
23685;DHT22;12020;51.384;6.908;2022-09-03T00:06:51;17.80;90.90
23685;DHT22;12020;51.384;6.908;2022-09-03T00:10:20;17.90;90.70
23685;DHT22;12020;51.384;6.908;2022-09-03T00:13:34;17.90;90.60
23685;DHT22;12020;51.384;6.908;2022-09-03T00:16:42;17.90;90.50
23685;DHT22;12020;51.384;6.908;2022-09-03T00:23:25;18.00;90.50
23685;DHT22;12020;51.384;6.908;2022-09-03T00:26:26;18.00;90.60
23685;DHT22;12020;51.384;6.908;2022-09-03T00:29:24;18.00;90.60
23685;DHT22;12020;51.384;6.908;2022-09-03T00:32:58;18.00;90.70
23685;DHT22;12020;51.384;6.908;2022-09-03T00:36:40;18.00;90.70
23685;DHT22;12020;51.384;6.908;2022-09-03T00:40:37;17.90;90.50
23685;DHT22;12020;51.384;6.908;2022-09-03T00:43:42;18.00;90.50
23685;DHT22;12020;51.384;6.908;2022-09-03T00:47:11;18.00;90.20
23685;DHT22;12020;51.384;6.908;2022-09-03T00:59:31;18.00;90.80
23685;DHT22;12020;51.384;6.908;2022-09-03T01:18:24;17.80;91.70
23685;DHT22;12020;51.384;6.908;2022-09-03T02:01:26;17.60;91.40
23685;DHT22;12020;51.384;6.908;2022-09-03T02:04:42;17.60;91.30
23685;DHT22;12020;51.384;6.908;2022-09-03T02:08:28;17.60;91.30
23685;DHT22;12020;51.384;6.908;2022-09-03T02:20:38;17.70;91.10
23685;DHT22;12020;51.384;6.908;2022-09-03T02:23:58;17.70;91.00
23685;DHT22;12020;51.384;6.908;2022-09-03T02:27:22;17.70;91.10
23685;DHT22;12020;51.384;6.908;2022-09-03T02:31:03;17.70;91.10
23685;DHT22;12020;51.384;6.908;2022-09-03T02:34:43;17.70;90.90
23685;DHT22;12020;51.384;6.908;2022-09-03T02:37:30;17.70;90.80
23685;DHT22;12020;51.384;6.908;2022-09-03T02:40:17;17.80;90.70
23685;DHT22;12020;51.384;6.908;2022-09-03T02:43:26;17.80;90.70
23685;DHT22;12020;51.384;6.908;2022-09-03T02:46:23;17.80;90.80
23685;DHT22;12020;51.384;6.908;2022-09-03T02:49:23;17.80;90.90
23685;DHT22;12020;51.384;6.908;2022-09-03T02:52:44;17.70;90.80
23685;DHT22;12020;51.384;6.908;2022-09-03T02:56:19;17.70;90.80
23685;DHT22;12020;51.384;6.908;2022-09-03T02:59:18;17.80;90.70
23685;DHT22;12020;51.384;6.908;2022-09-03T03:05:25;17.80;90.70
23685;DHT22;12020;51.384;6.908;2022-09-03T03:08:48;17.80;90.70
23685;DHT22;12020;51.384;6.908;2022-09-03T03:19:31;17.80;90.80
23685;DHT22;12020;51.384;6.908;2022-09-03T03:26:19;17.80;90.90
23685;DHT22;12020;51.384;6.908;2022-09-03T03:29:15;17.70;90.90
23685;DHT22;12020;51.384;6.908;2022-09-03T03:32:09;17.70;90.90
23685;DHT22;12020;51.384;6.908;2022-09-03T03:35:19;17.70;91.40
23685;DHT22;12020;51.384;6.908;2022-09-03T03:38:15;17.70;91.50
23685;DHT22;12020;51.384;6.908;2022-09-03T03:41:51;17.60;92.00
23685;DHT22;12020;51.384;6.908;2022-09-03T03:44:50;17.50;92.30
23685;DHT22;12020;51.384;6.908;2022-09-03T03:48:15;17.40;92.80
23685;DHT22;12020;51.384;6.908;2022-09-03T05:10:35;15.80;97.90
23685;DHT22;12020;51.384;6.908;2022-09-03T05:13:29;15.90;98.10
23685;DHT22;12020;51.384;6.908;2022-09-03T05:16:22;15.80;98.20
23685;DHT22;12020;51.384;6.908;2022-09-03T05:19:02;15.70;98.60
23685;DHT22;12020;51.384;6.908;2022-09-03T05:21:52;15.60;99.00
23685;DHT22;12020;51.384;6.908;2022-09-03T05:24:34;15.60;99.30
23685;DHT22;12020;51.384;6.908;2022-09-03T05:27:04;15.50;99.60
23685;DHT22;12020;51.384;6.908;2022-09-03T05:29:46;15.50;99.90
23685;DHT22;12020;51.384;6.908;2022-09-03T05:32:16;15.40;99.90
23685;DHT22;12020;51.384;6.908;2022-09-03T05:34:53;15.50;99.90
23685;DHT22;12020;51.384;6.908;2022-09-03T05:37:53;15.50;99.90
23685;DHT22;12020;51.384;6.908;2022-09-03T05:40:38;15.50;99.90
23685;DHT22;12020;51.384;6.908;2022-09-03T05:43:23;15.40;99.90
23685;DHT22;12020;51.384;6.908;2022-09-03T05:46:12;15.40;99.90
23685;DHT22;12020;51.384;6.908;2022-09-03T05:49:25;15.40;99.90
23685;DHT22;12020;51.384;6.908;2022-09-03T05:52:17;15.40;99.90
23685;DHT22;12020;51.384;6.908;2022-09-03T05:55:29;15.40;99.90
23685;DHT22;12020;51.384;6.908;2022-09-03T05:58:23;15.40;99.90
23685;DHT22;12020;51.384;6.908;2022-09-03T06:01:24;15.40;99.90
23685;DHT22;12020;51.384;6.908;2022-09-03T06:04:37;15.40;99.90
23685;DHT22;12020;51.384;6.908;2022-09-03T06:07:25;15.50;99.90
23685;DHT22;12020;51.384;6.908;2022-09-03T06:10:47;15.50;99.90
23685;DHT22;12020;51.384;6.908;2022-09-03T06:13:57;15.50;99.90
23685;DHT22;12020;51.384;6.908;2022-09-03T06:22:30;15.70;99.90
23685;DHT22;12020;51.384;6.908;2022-09-03T06:25:21;15.80;99.90
23685;DHT22;12020;51.384;6.908;2022-09-03T06:27:59;15.90;99.90
23685;DHT22;12020;51.384;6.908;2022-09-03T06:30:26;15.90;99.90
23685;DHT22;12020;51.384;6.908;2022-09-03T06:32:55;15.90;99.90
23685;DHT22;12020;51.384;6.908;2022-09-03T06:35:20;15.90;99.90
23685;DHT22;12020;51.384;6.908;2022-09-03T06:38:01;16.00;99.90
23685;DHT22;12020;51.384;6.908;2022-09-03T06:41:02;16.00;99.90
23685;DHT22;12020;51.384;6.908;2022-09-03T06:43:34;16.10;99.90
23685;DHT22;12020;51.384;6.908;2022-09-03T06:46:09;16.20;99.90
23685;DHT22;12020;51.384;6.908;2022-09-03T06:48:59;16.20;99.90
23685;DHT22;12020;51.384;6.908;2022-09-03T06:51:30;16.30;99.90
23685;DHT22;12020;51.384;6.908;2022-09-03T06:54:03;16.40;99.90
23685;DHT22;12020;51.384;6.908;2022-09-03T06:56:32;16.50;99.90
23685;DHT22;12020;51.384;6.908;2022-09-03T06:59:05;16.60;99.90
23685;DHT22;12020;51.384;6.908;2022-09-03T07:01:32;16.60;99.90
23685;DHT22;12020;51.384;6.908;2022-09-03T07:04:08;16.70;99.90
23685;DHT22;12020;51.384;6.908;2022-09-03T07:06:58;16.80;99.90
23685;DHT22;12020;51.384;6.908;2022-09-03T07:09:25;16.90;99.90
23685;DHT22;12020;51.384;6.908;2022-09-03T07:11:51;16.90;99.90
23685;DHT22;12020;51.384;6.908;2022-09-03T07:14:19;17.10;99.90
23685;DHT22;12020;51.384;6.908;2022-09-03T07:19:54;17.30;99.90
23685;DHT22;12020;51.384;6.908;2022-09-03T07:22:19;17.40;99.90
23685;DHT22;12020;51.384;6.908;2022-09-03T07:25:04;17.40;99.90
23685;DHT22;12020;51.384;6.908;2022-09-03T07:27:53;17.50;99.90
23685;DHT22;12020;51.384;6.908;2022-09-03T07:33:42;17.70;99.90
23685;DHT22;12020;51.384;6.908;2022-09-03T07:36:41;17.90;99.90
23685;DHT22;12020;51.384;6.908;2022-09-03T07:39:34;18.10;99.90
23685;DHT22;12020;51.384;6.908;2022-09-03T07:42:00;18.30;99.90
23685;DHT22;12020;51.384;6.908;2022-09-03T07:44:30;18.50;99.90
23685;DHT22;12020;51.384;6.908;2022-09-03T07:47:16;18.80;99.90
23685;DHT22;12020;51.384;6.908;2022-09-03T07:49:43;19.10;99.90
23685;DHT22;12020;51.384;6.908;2022-09-03T07:58:28;19.90;99.90
23685;DHT22;12020;51.384;6.908;2022-09-03T08:01:20;20.30;99.50
23685;DHT22;12020;51.384;6.908;2022-09-03T08:04:08;20.50;98.60
23685;DHT22;12020;51.384;6.908;2022-09-03T08:06:39;20.80;97.80
23685;DHT22;12020;51.384;6.908;2022-09-03T08:09:23;21.00;96.80
23685;DHT22;12020;51.384;6.908;2022-09-03T08:11:50;21.20;96.30
23685;DHT22;12020;51.384;6.908;2022-09-03T08:14:16;21.40;96.00
23685;DHT22;12020;51.384;6.908;2022-09-03T08:16:45;21.60;95.90
23685;DHT22;12020;51.384;6.908;2022-09-03T08:19:16;21.80;95.40
23685;DHT22;12020;51.384;6.908;2022-09-03T08:22:04;21.90;94.90
23685;DHT22;12020;51.384;6.908;2022-09-03T08:24:30;22.10;94.70
23685;DHT22;12020;51.384;6.908;2022-09-03T08:26:57;22.20;94.10
23685;DHT22;12020;51.384;6.908;2022-09-03T08:29:25;22.40;93.70
23685;DHT22;12020;51.384;6.908;2022-09-03T08:31:52;22.50;93.40
23685;DHT22;12020;51.384;6.908;2022-09-03T08:34:18;22.60;92.80
23685;DHT22;12020;51.384;6.908;2022-09-03T08:36:44;22.70;91.50
23685;DHT22;12020;51.384;6.908;2022-09-03T08:39:11;22.70;91.50
23685;DHT22;12020;51.384;6.908;2022-09-03T08:44:30;22.90;91.20
23685;DHT22;12020;51.384;6.908;2022-09-03T08:50:11;23.20;90.60
23685;DHT22;12020;51.384;6.908;2022-09-03T08:56:43;23.40;90.20
23685;DHT22;12020;51.384;6.908;2022-09-03T08:59:13;23.60;89.10
23685;DHT22;12020;51.384;6.908;2022-09-03T09:05:03;23.80;87.10
23685;DHT22;12020;51.384;6.908;2022-09-03T09:07:55;23.90;87.60
23685;DHT22;12020;51.384;6.908;2022-09-03T09:11:15;24.10;86.70
23685;DHT22;12020;51.384;6.908;2022-09-03T09:16:59;24.30;85.20
23685;DHT22;12020;51.384;6.908;2022-09-03T09:22:08;24.50;84.90
23685;DHT22;12020;51.384;6.908;2022-09-03T09:25:02;24.60;84.60
23685;DHT22;12020;51.384;6.908;2022-09-03T09:27:36;24.70;85.50
23685;DHT22;12020;51.384;6.908;2022-09-03T09:30:04;24.70;84.10
23685;DHT22;12020;51.384;6.908;2022-09-03T09:32:31;24.60;84.70
23685;DHT22;12020;51.384;6.908;2022-09-03T09:35:00;24.60;84.70
23685;DHT22;12020;51.384;6.908;2022-09-03T09:37:29;24.50;84.60
23685;DHT22;12020;51.384;6.908;2022-09-03T09:40:00;24.50;84.50
23685;DHT22;12020;51.384;6.908;2022-09-03T09:45:21;24.40;84.50
23685;DHT22;12020;51.384;6.908;2022-09-03T09:47:47;24.40;85.20
23685;DHT22;12020;51.384;6.908;2022-09-03T09:50:34;24.40;85.00
23685;DHT22;12020;51.384;6.908;2022-09-03T10:09:56;25.60;83.60
23685;DHT22;12020;51.384;6.908;2022-09-03T10:12:34;25.80;82.90
23685;DHT22;12020;51.384;6.908;2022-09-03T10:15:19;26.00;82.60
23685;DHT22;12020;51.384;6.908;2022-09-03T10:17:52;26.10;82.00
23685;DHT22;12020;51.384;6.908;2022-09-03T10:23:25;26.30;82.90
23685;DHT22;12020;51.384;6.908;2022-09-03T10:26:03;26.30;80.40
23685;DHT22;12020;51.384;6.908;2022-09-03T11:10:52;25.30;84.60
23685;DHT22;12020;51.384;6.908;2022-09-03T11:13:39;25.10;83.50
23685;DHT22;12020;51.384;6.908;2022-09-03T11:16:12;24.90;83.80
23685;DHT22;12020;51.384;6.908;2022-09-03T11:19:27;24.80;84.40
23685;DHT22;12020;51.384;6.908;2022-09-03T11:22:03;24.60;84.90
23685;DHT22;12020;51.384;6.908;2022-09-03T11:24:58;24.60;86.20
23685;DHT22;12020;51.384;6.908;2022-09-03T11:28:19;24.60;86.00
23685;DHT22;12020;51.384;6.908;2022-09-03T12:50:39;24.50;90.50
23685;DHT22;12020;51.384;6.908;2022-09-03T12:53:21;24.60;90.80
23685;DHT22;12020;51.384;6.908;2022-09-03T12:56:28;24.70;91.10
23685;DHT22;12020;51.384;6.908;2022-09-03T12:59:13;24.80;91.10
23685;DHT22;12020;51.384;6.908;2022-09-03T13:14:47;25.20;90.40
23685;DHT22;12020;51.384;6.908;2022-09-03T13:39:51;25.20;89.30
23685;DHT22;12020;51.384;6.908;2022-09-03T13:51:46;25.30;89.50
23685;DHT22;12020;51.384;6.908;2022-09-03T13:54:32;25.30;89.80
23685;DHT22;12020;51.384;6.908;2022-09-03T14:30:03;25.50;87.70
23685;DHT22;12020;51.384;6.908;2022-09-03T15:14:25;25.70;90.30
23685;DHT22;12020;51.384;6.908;2022-09-03T15:58:44;25.80;90.40
23685;DHT22;12020;51.384;6.908;2022-09-03T16:01:26;25.70;90.20
23685;DHT22;12020;51.384;6.908;2022-09-03T16:06:46;25.80;90.00
23685;DHT22;12020;51.384;6.908;2022-09-03T16:14:37;25.70;90.20
23685;DHT22;12020;51.384;6.908;2022-09-03T16:17:12;25.70;90.10
23685;DHT22;12020;51.384;6.908;2022-09-03T16:27:21;25.50;89.10
23685;DHT22;12020;51.384;6.908;2022-09-03T16:30:30;25.40;89.30
23685;DHT22;12020;51.384;6.908;2022-09-03T16:32:44;25.30;90.00
23685;DHT22;12020;51.384;6.908;2022-09-03T16:35:19;25.20;90.70
23685;DHT22;12020;51.384;6.908;2022-09-03T16:40:53;25.10;94.20
23685;DHT22;12020;51.384;6.908;2022-09-03T16:43:24;25.00;97.10
23685;DHT22;12020;51.384;6.908;2022-09-03T16:46:54;24.70;98.90
23685;DHT22;12020;51.384;6.908;2022-09-03T16:49:11;24.40;99.90
23685;DHT22;12020;51.384;6.908;2022-09-03T16:59:50;23.80;99.90
23685;DHT22;12020;51.384;6.908;2022-09-03T17:15:39;22.50;99.90
23685;DHT22;12020;51.384;6.908;2022-09-03T17:23:46;22.10;99.90
23685;DHT22;12020;51.384;6.908;2022-09-03T17:29:16;21.90;99.90
23685;DHT22;12020;51.384;6.908;2022-09-03T17:37:07;21.70;99.90
23685;DHT22;12020;51.384;6.908;2022-09-03T17:39:37;21.70;99.90
23685;DHT22;12020;51.384;6.908;2022-09-03T17:42:15;21.70;99.90
23685;DHT22;12020;51.384;6.908;2022-09-03T17:44:46;21.70;99.90
23685;DHT22;12020;51.384;6.908;2022-09-03T17:47:28;21.70;99.90
23685;DHT22;12020;51.384;6.908;2022-09-03T17:50:59;21.60;99.90
23685;DHT22;12020;51.384;6.908;2022-09-03T17:53:11;21.60;99.90
23685;DHT22;12020;51.384;6.908;2022-09-03T17:55:49;21.60;99.90
23685;DHT22;12020;51.384;6.908;2022-09-03T18:03:52;21.60;99.90
23685;DHT22;12020;51.384;6.908;2022-09-03T18:06:54;21.60;99.90
23685;DHT22;12020;51.384;6.908;2022-09-03T18:09:45;21.60;99.90
23685;DHT22;12020;51.384;6.908;2022-09-03T18:12:32;21.50;99.90
23685;DHT22;12020;51.384;6.908;2022-09-03T18:15:12;21.50;99.90
23685;DHT22;12020;51.384;6.908;2022-09-03T18:17:56;21.40;99.90
23685;DHT22;12020;51.384;6.908;2022-09-03T18:20:23;21.30;99.90
23685;DHT22;12020;51.384;6.908;2022-09-03T18:23:27;21.30;99.90
23685;DHT22;12020;51.384;6.908;2022-09-03T18:26:19;21.30;99.90
23685;DHT22;12020;51.384;6.908;2022-09-03T18:29:15;21.30;99.90
23685;DHT22;12020;51.384;6.908;2022-09-03T18:31:59;21.20;99.90
23685;DHT22;12020;51.384;6.908;2022-09-03T18:34:45;21.20;99.90
23685;DHT22;12020;51.384;6.908;2022-09-03T18:37:30;21.20;99.90
23685;DHT22;12020;51.384;6.908;2022-09-03T18:40:22;21.20;99.90
23685;DHT22;12020;51.384;6.908;2022-09-03T18:43:36;21.10;99.90
23685;DHT22;12020;51.384;6.908;2022-09-03T18:49:33;21.10;99.90
23685;DHT22;12020;51.384;6.908;2022-09-03T18:53:11;21.10;99.90
23685;DHT22;12020;51.384;6.908;2022-09-03T18:55:50;21.10;99.90
23685;DHT22;12020;51.384;6.908;2022-09-03T18:58:56;21.00;99.90
23685;DHT22;12020;51.384;6.908;2022-09-03T19:01:44;21.00;99.90
23685;DHT22;12020;51.384;6.908;2022-09-03T19:08:40;20.90;99.90
23685;DHT22;12020;51.384;6.908;2022-09-03T19:10:55;20.90;99.90
23685;DHT22;12020;51.384;6.908;2022-09-03T19:13:41;20.80;99.90
23685;DHT22;12020;51.384;6.908;2022-09-03T19:22:35;20.70;99.90
23685;DHT22;12020;51.384;6.908;2022-09-03T19:25:24;20.70;99.90
23685;DHT22;12020;51.384;6.908;2022-09-03T19:28:24;20.60;99.90
23685;DHT22;12020;51.384;6.908;2022-09-03T19:31:26;20.60;99.90
23685;DHT22;12020;51.384;6.908;2022-09-03T19:37:20;20.60;99.90
23685;DHT22;12020;51.384;6.908;2022-09-03T19:52:29;20.40;99.90
23685;DHT22;12020;51.384;6.908;2022-09-03T19:55:24;20.40;99.90
23685;DHT22;12020;51.384;6.908;2022-09-03T19:58:10;20.30;99.90
23685;DHT22;12020;51.384;6.908;2022-09-03T20:00:54;20.30;99.90
23685;DHT22;12020;51.384;6.908;2022-09-03T20:03:40;20.20;99.90
23685;DHT22;12020;51.384;6.908;2022-09-03T20:06:25;20.10;99.90
23685;DHT22;12020;51.384;6.908;2022-09-03T20:09:09;20.10;99.90
23685;DHT22;12020;51.384;6.908;2022-09-03T20:12:01;20.10;99.90
23685;DHT22;12020;51.384;6.908;2022-09-03T20:14:29;20.00;99.90
23685;DHT22;12020;51.384;6.908;2022-09-03T20:17:28;19.90;99.90
23685;DHT22;12020;51.384;6.908;2022-09-03T20:28:59;19.80;99.90
23685;DHT22;12020;51.384;6.908;2022-09-03T20:38:41;19.90;99.90
23685;DHT22;12020;51.384;6.908;2022-09-03T20:41:06;19.90;99.90
23685;DHT22;12020;51.384;6.908;2022-09-03T20:51:13;19.60;99.90
23685;DHT22;12020;51.384;6.908;2022-09-03T21:11:10;19.40;99.90
23685;DHT22;12020;51.384;6.908;2022-09-03T21:14:07;19.30;99.90
23685;DHT22;12020;51.384;6.908;2022-09-03T21:20:12;19.30;99.90
23685;DHT22;12020;51.384;6.908;2022-09-03T21:26:09;19.10;99.90
23685;DHT22;12020;51.384;6.908;2022-09-03T21:28:37;19.10;99.90
23685;DHT22;12020;51.384;6.908;2022-09-03T21:31:33;19.10;99.90
23685;DHT22;12020;51.384;6.908;2022-09-03T21:34:10;19.10;99.90
23685;DHT22;12020;51.384;6.908;2022-09-03T21:36:41;19.10;99.90
23685;DHT22;12020;51.384;6.908;2022-09-03T21:39:46;19.10;99.90
23685;DHT22;12020;51.384;6.908;2022-09-03T21:51:06;19.00;99.90
23685;DHT22;12020;51.384;6.908;2022-09-03T21:57:37;18.90;99.90
23685;DHT22;12020;51.384;6.908;2022-09-03T22:00:45;18.90;99.90
23685;DHT22;12020;51.384;6.908;2022-09-03T22:03:20;18.80;99.90
23685;DHT22;12020;51.384;6.908;2022-09-03T22:06:05;18.80;99.90
23685;DHT22;12020;51.384;6.908;2022-09-03T22:09:16;18.70;99.90
23685;DHT22;12020;51.384;6.908;2022-09-03T22:14:58;18.70;99.90
23685;DHT22;12020;51.384;6.908;2022-09-03T22:18:05;18.70;99.90
23685;DHT22;12020;51.384;6.908;2022-09-03T22:20:50;18.70;99.90
23685;DHT22;12020;51.384;6.908;2022-09-03T22:26:58;18.70;99.90
